sensor_id;sensor_type;location;lat;lon;timestamp;pressure;altitude;pressure_sealevel;temperature;humidity
71621;BME280;59471;42.254;23.102;2023-01-25T00:02:05;96951.28;;;2.80;82.49
71621;BME280;59471;42.254;23.102;2023-01-25T00:04:31;96944.25;;;2.69;82.98
71621;BME280;59471;42.254;23.102;2023-01-25T00:06:56;96955.22;;;2.73;82.96
71621;BME280;59471;42.254;23.102;2023-01-25T00:09:23;96954.88;;;2.65;83.31
71621;BME280;59471;42.254;23.102;2023-01-25T00:11:50;96962.03;;;2.74;82.66
71621;BME280;59471;42.254;23.102;2023-01-25T00:14:17;96968.47;;;2.68;82.44
71621;BME280;59471;42.254;23.102;2023-01-25T00:16:43;96965.75;;;2.70;82.45
71621;BME280;59471;42.254;23.102;2023-01-25T00:19:09;96974.84;;;2.63;82.48
71621;BME280;59471;42.254;23.102;2023-01-25T00:21:35;96974.84;;;2.63;82.17
71621;BME280;59471;42.254;23.102;2023-01-25T00:24:02;96971.13;;;2.67;82.44
71621;BME280;59471;42.254;23.102;2023-01-25T00:26:30;96973.13;;;2.76;82.23
71621;BME280;59471;42.254;23.102;2023-01-25T00:28:58;96965.75;;;2.70;82.67
71621;BME280;59471;42.254;23.102;2023-01-25T00:37:13;96986.88;;;2.89;82.13
71621;BME280;59471;42.254;23.102;2023-01-25T00:39:45;96983.38;;;2.77;82.53
71621;BME280;59471;42.254;23.102;2023-01-25T00:42:11;96972.59;;;2.84;82.49
71621;BME280;59471;42.254;23.102;2023-01-25T00:44:38;96967.97;;;3.01;81.70
71621;BME280;59471;42.254;23.102;2023-01-25T00:47:04;96962.28;;;2.96;82.10
71621;BME280;59471;42.254;23.102;2023-01-25T00:49:30;96966.41;;;2.99;82.22
71621;BME280;59471;42.254;23.102;2023-01-25T00:51:58;96965.06;;;3.19;82.26
71621;BME280;59471;42.254;23.102;2023-01-25T00:54:24;96961.03;;;3.15;81.42
71621;BME280;59471;42.254;23.102;2023-01-25T00:56:50;96960.94;;;3.04;80.92
71621;BME280;59471;42.254;23.102;2023-01-25T00:59:21;96971.69;;;2.97;81.34
71621;BME280;59471;42.254;23.102;2023-01-25T01:01:48;96960.09;;;2.90;82.37
71621;BME280;59471;42.254;23.102;2023-01-25T01:04:14;96962.91;;;2.87;82.99
71621;BME280;59471;42.254;23.102;2023-01-25T01:06:41;96955.03;;;3.01;80.95
71621;BME280;59471;42.254;23.102;2023-01-25T01:09:11;96962.16;;;3.11;80.16
71621;BME280;59471;42.254;23.102;2023-01-25T01:11:38;96958.13;;;2.81;81.11
71621;BME280;59471;42.254;23.102;2023-01-25T01:14:04;96952.91;;;2.55;82.75
71621;BME280;59471;42.254;23.102;2023-01-25T01:16:29;96961.81;;;2.77;83.19
71621;BME280;59471;42.254;23.102;2023-01-25T01:18:55;96964.44;;;2.90;82.28
71621;BME280;59471;42.254;23.102;2023-01-25T01:21:20;96959.56;;;2.98;82.20
71621;BME280;59471;42.254;23.102;2023-01-25T01:23:46;96965.06;;;3.06;81.58
71621;BME280;59471;42.254;23.102;2023-01-25T01:26:14;96956.25;;;2.83;82.05
71621;BME280;59471;42.254;23.102;2023-01-25T01:28:42;96951.06;;;2.83;82.54
71621;BME280;59471;42.254;23.102;2023-01-25T01:31:14;96943.72;;;2.77;81.88
71621;BME280;59471;42.254;23.102;2023-01-25T01:33:42;96941.22;;;2.63;82.69
71621;BME280;59471;42.254;23.102;2023-01-25T01:36:12;96940.00;;;2.55;82.93
71621;BME280;59471;42.254;23.102;2023-01-25T01:38:40;96933.91;;;2.69;82.05
71621;BME280;59471;42.254;23.102;2023-01-25T01:41:06;96942.78;;;2.65;82.30
71621;BME280;59471;42.254;23.102;2023-01-25T01:43:32;96942.97;;;2.49;83.87
71621;BME280;59471;42.254;23.102;2023-01-25T01:46:09;96921.63;;;2.46;82.85
71621;BME280;59471;42.254;23.102;2023-01-25T01:54:33;96926.38;;;2.39;83.32
71621;BME280;59471;42.254;23.102;2023-01-25T01:57:24;96930.94;;;2.48;83.00
71621;BME280;59471;42.254;23.102;2023-01-25T01:59:59;96920.84;;;2.58;82.94
71621;BME280;59471;42.254;23.102;2023-01-25T02:02:30;96939.28;;;2.66;82.04
71621;BME280;59471;42.254;23.102;2023-01-25T02:04:59;96931.81;;;2.62;82.02
71621;BME280;59471;42.254;23.102;2023-01-25T02:09:58;96939.34;;;2.65;81.88
71621;BME280;59471;42.254;23.102;2023-01-25T02:12:25;96926.53;;;2.50;82.33
71621;BME280;59471;42.254;23.102;2023-01-25T02:14:52;96943.00;;;2.75;81.87
71621;BME280;59471;42.254;23.102;2023-01-25T02:17:26;96928.31;;;2.75;81.70
71621;BME280;59471;42.254;23.102;2023-01-25T02:19:57;96930.78;;;2.77;82.01
71621;BME280;59471;42.254;23.102;2023-01-25T02:22:32;96932.13;;;2.83;81.94
71621;BME280;59471;42.254;23.102;2023-01-25T02:25:07;96924.06;;;2.62;81.85
71621;BME280;59471;42.254;23.102;2023-01-25T02:27:38;96929.75;;;2.67;82.11
71621;BME280;59471;42.254;23.102;2023-01-25T02:30:06;96941.13;;;2.64;82.08
71621;BME280;59471;42.254;23.102;2023-01-25T02:32:32;96947.53;;;2.59;82.20
71621;BME280;59471;42.254;23.102;2023-01-25T02:34:58;96941.44;;;2.72;82.33
71621;BME280;59471;42.254;23.102;2023-01-25T02:37:23;96937.63;;;2.65;81.11
71621;BME280;59471;42.254;23.102;2023-01-25T02:39:49;96941.13;;;2.77;81.94
71621;BME280;59471;42.254;23.102;2023-01-25T02:42:15;96933.56;;;2.74;82.01
71621;BME280;59471;42.254;23.102;2023-01-25T02:44:41;96938.03;;;2.72;81.87
71621;BME280;59471;42.254;23.102;2023-01-25T02:47:08;96931.41;;;2.68;82.24
71621;BME280;59471;42.254;23.102;2023-01-25T02:49:35;96940.44;;;2.75;81.96
71621;BME280;59471;42.254;23.102;2023-01-25T02:52:02;96931.59;;;2.65;82.65
71621;BME280;59471;42.254;23.102;2023-01-25T02:54:28;96932.84;;;2.46;83.36
71621;BME280;59471;42.254;23.102;2023-01-25T02:56:55;96931.19;;;2.71;82.04
71621;BME280;59471;42.254;23.102;2023-01-25T02:59:20;96931.81;;;2.62;82.75
71621;BME280;59471;42.254;23.102;2023-01-25T03:01:46;96939.66;;;2.47;83.25
71621;BME280;59471;42.254;23.102;2023-01-25T03:04:12;96936.38;;;2.71;82.67
71621;BME280;59471;42.254;23.102;2023-01-25T03:06:38;96933.09;;;2.94;82.39
71621;BME280;59471;42.254;23.102;2023-01-25T03:09:06;96932.66;;;3.00;82.21
71621;BME280;59471;42.254;23.102;2023-01-25T03:11:34;96930.91;;;2.88;82.45
71621;BME280;59471;42.254;23.102;2023-01-25T03:13:59;96929.34;;;2.73;82.74
71621;BME280;59471;42.254;23.102;2023-01-25T03:16:25;96926.66;;;2.62;83.24
71621;BME280;59471;42.254;23.102;2023-01-25T03:18:53;96925.97;;;2.45;83.72
71621;BME280;59471;42.254;23.102;2023-01-25T03:21:20;96926.84;;;2.59;83.15
71621;BME280;59471;42.254;23.102;2023-01-25T03:23:47;96921.69;;;2.59;82.50
71621;BME280;59471;42.254;23.102;2023-01-25T03:26:21;96914.44;;;2.64;81.84
71621;BME280;59471;42.254;23.102;2023-01-25T03:28:47;96918.56;;;2.53;82.42
71621;BME280;59471;42.254;23.102;2023-01-25T03:31:15;96913.16;;;2.44;83.06
71621;BME280;59471;42.254;23.102;2023-01-25T03:33:41;96907.88;;;2.45;83.25
71621;BME280;59471;42.254;23.102;2023-01-25T03:36:08;96915.44;;;2.48;83.10
71621;BME280;59471;42.254;23.102;2023-01-25T03:38:34;96909.16;;;2.52;82.14
71621;BME280;59471;42.254;23.102;2023-01-25T03:41:00;96918.97;;;2.60;82.30
71621;BME280;59471;42.254;23.102;2023-01-25T03:43:26;96916.03;;;2.39;82.66
71621;BME280;59471;42.254;23.102;2023-01-25T03:45:54;96912.34;;;2.43;82.69
71621;BME280;59471;42.254;23.102;2023-01-25T03:48:22;96911.06;;;2.36;83.64
71621;BME280;59471;42.254;23.102;2023-01-25T03:50:53;96914.53;;;2.09;84.12
71621;BME280;59471;42.254;23.102;2023-01-25T03:53:21;96914.25;;;2.27;83.61
71621;BME280;59471;42.254;23.102;2023-01-25T03:55:58;96910.75;;;2.28;83.41
71621;BME280;59471;42.254;23.102;2023-01-25T03:58:29;96914.47;;;2.24;83.84
71621;BME280;59471;42.254;23.102;2023-01-25T04:00:58;96912.91;;;2.21;84.47
71621;BME280;59471;42.254;23.102;2023-01-25T04:03:24;96926.78;;;2.33;83.42
71621;BME280;59471;42.254;23.102;2023-01-25T04:05:51;96915.97;;;2.14;83.73
71621;BME280;59471;42.254;23.102;2023-01-25T04:08:17;96918.97;;;2.07;83.60
71621;BME280;59471;42.254;23.102;2023-01-25T04:10:43;96916.53;;;2.19;84.05
71621;BME280;59471;42.254;23.102;2023-01-25T04:13:10;96926.88;;;2.19;83.53
71621;BME280;59471;42.254;23.102;2023-01-25T04:15:36;96915.81;;;2.29;83.69
71621;BME280;59471;42.254;23.102;2023-01-25T04:18:01;96922.06;;;2.40;83.46
71621;BME280;59471;42.254;23.102;2023-01-25T04:20:27;96921.47;;;2.62;83.12
71621;BME280;59471;42.254;23.102;2023-01-25T04:22:52;96915.88;;;2.68;83.05
71621;BME280;59471;42.254;23.102;2023-01-25T04:25:18;96915.25;;;2.51;83.22
71621;BME280;59471;42.254;23.102;2023-01-25T04:27:43;96915.97;;;2.53;83.21
71621;BME280;59471;42.254;23.102;2023-01-25T04:30:10;96915.66;;;2.58;83.00
71621;BME280;59471;42.254;23.102;2023-01-25T04:32:36;96916.25;;;2.36;83.98
71621;BME280;59471;42.254;23.102;2023-01-25T04:35:02;96912.66;;;2.51;83.29
71621;BME280;59471;42.254;23.102;2023-01-25T04:37:28;96913.94;;;2.71;82.84
71621;BME280;59471;42.254;23.102;2023-01-25T04:39:53;96914.84;;;2.83;82.03
71621;BME280;59471;42.254;23.102;2023-01-25T04:42:19;96920.66;;;2.87;82.82
71621;BME280;59471;42.254;23.102;2023-01-25T04:44:44;96920.66;;;2.87;82.20
71621;BME280;59471;42.254;23.102;2023-01-25T04:47:10;96925.41;;;2.93;81.77
71621;BME280;59471;42.254;23.102;2023-01-25T04:49:35;96923.75;;;2.92;81.85
71621;BME280;59471;42.254;23.102;2023-01-25T04:52:01;96924.59;;;2.79;82.27
71621;BME280;59471;42.254;23.102;2023-01-25T04:54:26;96924.28;;;2.59;82.91
71621;BME280;59471;42.254;23.102;2023-01-25T04:56:52;96922.09;;;2.52;83.15
71621;BME280;59471;42.254;23.102;2023-01-25T04:59:17;96941.88;;;2.79;82.12
71621;BME280;59471;42.254;23.102;2023-01-25T05:01:43;96938.13;;;2.83;82.38
71621;BME280;59471;42.254;23.102;2023-01-25T05:04:08;96938.88;;;2.72;82.44
71621;BME280;59471;42.254;23.102;2023-01-25T05:06:34;96929.34;;;2.73;82.79
71621;BME280;59471;42.254;23.102;2023-01-25T05:09:00;96947.25;;;2.76;82.49
71621;BME280;59471;42.254;23.102;2023-01-25T05:11:25;96942.81;;;2.78;82.56
71621;BME280;59471;42.254;23.102;2023-01-25T05:13:51;96942.38;;;2.59;83.12
71621;BME280;59471;42.254;23.102;2023-01-25T05:16:18;96944.81;;;2.47;83.33
71621;BME280;59471;42.254;23.102;2023-01-25T05:18:44;96943.50;;;2.67;83.40
71621;BME280;59471;42.254;23.102;2023-01-25T05:21:10;96941.94;;;2.65;82.88
71621;BME280;59471;42.254;23.102;2023-01-25T05:23:55;96938.44;;;2.66;83.62
71621;BME280;59471;42.254;23.102;2023-01-25T05:26:21;96940.44;;;2.75;82.69
71621;BME280;59471;42.254;23.102;2023-01-25T05:29:05;96949.84;;;2.76;82.98
71621;BME280;59471;42.254;23.102;2023-01-25T05:31:30;96946.00;;;2.69;83.34
71621;BME280;59471;42.254;23.102;2023-01-25T05:33:56;96946.72;;;2.71;83.03
71621;BME280;59471;42.254;23.102;2023-01-25T05:36:21;96944.63;;;2.50;82.96
71621;BME280;59471;42.254;23.102;2023-01-25T05:38:47;96940.03;;;2.41;83.80
71621;BME280;59471;42.254;23.102;2023-01-25T05:41:12;96933.03;;;2.43;83.48
71621;BME280;59471;42.254;23.102;2023-01-25T05:43:38;96934.88;;;2.41;84.10
71621;BME280;59471;42.254;23.102;2023-01-25T05:46:03;96932.28;;;2.41;84.55
71621;BME280;59471;42.254;23.102;2023-01-25T05:48:30;96931.28;;;2.57;84.21
71621;BME280;59471;42.254;23.102;2023-01-25T05:50:58;96933.28;;;2.66;84.29
71621;BME280;59471;42.254;23.102;2023-01-25T05:53:25;96941.09;;;2.51;84.33
71621;BME280;59471;42.254;23.102;2023-01-25T05:55:51;96944.09;;;2.45;84.26
71621;BME280;59471;42.254;23.102;2023-01-25T05:58:17;96939.63;;;2.35;84.14
71621;BME280;59471;42.254;23.102;2023-01-25T06:00:42;96943.16;;;2.06;85.00
71621;BME280;59471;42.254;23.102;2023-01-25T06:03:08;96930.97;;;2.08;85.52
71621;BME280;59471;42.254;23.102;2023-01-25T06:05:33;96935.47;;;2.32;84.67
71621;BME280;59471;42.254;23.102;2023-01-25T06:07:59;96942.16;;;2.62;84.36
71621;BME280;59471;42.254;23.102;2023-01-25T06:10:25;96939.91;;;2.83;84.80
71621;BME280;59471;42.254;23.102;2023-01-25T06:12:56;96950.84;;;2.61;83.98
71621;BME280;59471;42.254;23.102;2023-01-25T06:15:23;96945.66;;;2.61;84.03
71621;BME280;59471;42.254;23.102;2023-01-25T06:17:48;96950.00;;;2.60;83.28
71621;BME280;59471;42.254;23.102;2023-01-25T06:20:14;96939.28;;;2.66;83.49
71621;BME280;59471;42.254;23.102;2023-01-25T06:22:40;96935.44;;;2.72;82.90
71621;BME280;59471;42.254;23.102;2023-01-25T06:25:06;96945.47;;;2.76;82.14
71621;BME280;59471;42.254;23.102;2023-01-25T06:27:32;96947.97;;;2.78;82.27
71621;BME280;59471;42.254;23.102;2023-01-25T06:29:57;96947.16;;;2.90;82.08
71621;BME280;59471;42.254;23.102;2023-01-25T06:32:23;96945.09;;;2.95;81.78
71621;BME280;59471;42.254;23.102;2023-01-25T06:34:50;96953.78;;;2.94;81.76
71621;BME280;59471;42.254;23.102;2023-01-25T06:37:15;96952.94;;;2.81;81.43
71621;BME280;59471;42.254;23.102;2023-01-25T06:39:41;96951.06;;;2.83;81.28
71621;BME280;59471;42.254;23.102;2023-01-25T06:42:06;96958.63;;;2.73;82.83
71621;BME280;59471;42.254;23.102;2023-01-25T06:44:32;96959.56;;;2.85;81.90
71621;BME280;59471;42.254;23.102;2023-01-25T06:46:59;96961.41;;;2.83;82.44
71621;BME280;59471;42.254;23.102;2023-01-25T06:49:24;96954.81;;;2.79;81.94
71621;BME280;59471;42.254;23.102;2023-01-25T06:51:49;96947.88;;;2.92;82.09
71621;BME280;59471;42.254;23.102;2023-01-25T06:54:15;96951.09;;;3.09;79.82
71621;BME280;59471;42.254;23.102;2023-01-25T06:56:40;96947.78;;;3.07;80.75
71621;BME280;59471;42.254;23.102;2023-01-25T06:59:06;96950.16;;;3.10;81.26
71621;BME280;59471;42.254;23.102;2023-01-25T07:01:32;96955.63;;;2.92;81.42
71621;BME280;59471;42.254;23.102;2023-01-25T07:03:57;96954.06;;;3.02;80.31
71621;BME280;59471;42.254;23.102;2023-01-25T07:06:25;96959.56;;;2.85;80.47
71621;BME280;59471;42.254;23.102;2023-01-25T07:08:53;96955.13;;;3.00;80.40
71621;BME280;59471;42.254;23.102;2023-01-25T07:11:19;96948.91;;;3.02;79.92
71621;BME280;59471;42.254;23.102;2023-01-25T07:13:46;96954.19;;;3.14;79.70
71621;BME280;59471;42.254;23.102;2023-01-25T07:16:17;96951.72;;;3.25;79.77
71621;BME280;59471;42.254;23.102;2023-01-25T07:18:43;96953.38;;;3.00;79.91
71621;BME280;59471;42.254;23.102;2023-01-25T07:21:20;96951.00;;;2.97;80.61
71621;BME280;59471;42.254;23.102;2023-01-25T07:23:51;96954.59;;;3.20;78.12
71621;BME280;59471;42.254;23.102;2023-01-25T07:26:23;96957.72;;;3.13;78.87
71621;BME280;59471;42.254;23.102;2023-01-25T07:28:50;96941.97;;;3.29;79.57
71621;BME280;59471;42.254;23.102;2023-01-25T07:31:18;96937.84;;;3.00;79.72
71621;BME280;59471;42.254;23.102;2023-01-25T07:33:52;96942.28;;;2.98;80.03
71621;BME280;59471;42.254;23.102;2023-01-25T07:36:19;96939.50;;;3.01;80.04
71621;BME280;59471;42.254;23.102;2023-01-25T07:38:45;96940.31;;;3.15;79.56
71621;BME280;59471;42.254;23.102;2023-01-25T07:41:11;96947.78;;;3.07;79.46
71621;BME280;59471;42.254;23.102;2023-01-25T07:43:37;96948.59;;;3.07;79.47
71621;BME280;59471;42.254;23.102;2023-01-25T07:46:08;96945.19;;;3.19;79.07
71621;BME280;59471;42.254;23.102;2023-01-25T07:48:35;96940.94;;;3.18;78.82
71621;BME280;59471;42.254;23.102;2023-01-25T07:51:03;96948.81;;;3.30;79.33
71621;BME280;59471;42.254;23.102;2023-01-25T07:53:41;96952.03;;;3.08;79.64
71621;BME280;59471;42.254;23.102;2023-01-25T07:56:09;96952.97;;;3.07;80.30
71621;BME280;59471;42.254;23.102;2023-01-25T07:58:36;96949.03;;;3.01;80.60
71621;BME280;59471;42.254;23.102;2023-01-25T08:01:13;96961.88;;;3.15;80.33
71621;BME280;59471;42.254;23.102;2023-01-25T08:03:41;96965.78;;;3.21;80.21
71621;BME280;59471;42.254;23.102;2023-01-25T08:06:08;96972.63;;;3.47;79.51
71621;BME280;59471;42.254;23.102;2023-01-25T08:08:38;96968.88;;;3.39;79.21
71621;BME280;59471;42.254;23.102;2023-01-25T08:11:16;96965.84;;;3.58;79.47
71621;BME280;59471;42.254;23.102;2023-01-25T08:13:42;96957.44;;;3.67;78.51
71621;BME280;59471;42.254;23.102;2023-01-25T08:16:12;96960.97;;;3.66;77.55
71621;BME280;59471;42.254;23.102;2023-01-25T08:18:38;96952.31;;;3.78;78.14
71621;BME280;59471;42.254;23.102;2023-01-25T08:21:04;96955.38;;;3.72;78.24
71621;BME280;59471;42.254;23.102;2023-01-25T08:23:30;96951.38;;;3.92;78.03
71621;BME280;59471;42.254;23.102;2023-01-25T08:26:06;96943.00;;;3.88;77.33
71621;BME280;59471;42.254;23.102;2023-01-25T08:28:33;96942.66;;;4.17;77.04
71621;BME280;59471;42.254;23.102;2023-01-25T08:31:11;96938.69;;;4.00;76.63
71621;BME280;59471;42.254;23.102;2023-01-25T08:33:41;96926.94;;;3.83;75.11
71621;BME280;59471;42.254;23.102;2023-01-25T08:36:09;96928.63;;;3.71;77.01
71621;BME280;59471;42.254;23.102;2023-01-25T08:38:35;96937.91;;;3.87;76.97
71621;BME280;59471;42.254;23.102;2023-01-25T08:41:06;96940.19;;;3.91;75.23
71621;BME280;59471;42.254;23.102;2023-01-25T08:43:32;96933.22;;;3.92;74.93
71621;BME280;59471;42.254;23.102;2023-01-25T08:45:58;96935.69;;;3.93;74.73
71621;BME280;59471;42.254;23.102;2023-01-25T08:48:24;96933.41;;;4.02;76.14
71621;BME280;59471;42.254;23.102;2023-01-25T08:50:52;96930.63;;;4.16;76.00
71621;BME280;59471;42.254;23.102;2023-01-25T08:53:18;96930.41;;;4.19;76.21
71621;BME280;59471;42.254;23.102;2023-01-25T08:55:44;96916.75;;;4.17;75.23
71621;BME280;59471;42.254;23.102;2023-01-25T08:58:14;96930.06;;;4.48;75.26
71621;BME280;59471;42.254;23.102;2023-01-25T09:00:42;96928.22;;;4.61;74.68
71621;BME280;59471;42.254;23.102;2023-01-25T09:03:08;96930.66;;;4.51;74.33
71621;BME280;59471;42.254;23.102;2023-01-25T09:05:36;96929.13;;;4.60;75.08
71621;BME280;59471;42.254;23.102;2023-01-25T09:08:03;96922.94;;;4.74;73.78
71621;BME280;59471;42.254;23.102;2023-01-25T09:10:30;96916.25;;;4.82;74.12
71621;BME280;59471;42.254;23.102;2023-01-25T09:12:56;96922.91;;;4.62;72.82
71621;BME280;59471;42.254;23.102;2023-01-25T09:15:22;96914.97;;;4.53;73.89
71621;BME280;59471;42.254;23.102;2023-01-25T09:17:55;96915.44;;;4.47;75.00
71621;BME280;59471;42.254;23.102;2023-01-25T09:20:21;96907.41;;;4.38;74.62
71621;BME280;59471;42.254;23.102;2023-01-25T09:22:48;96902.38;;;4.59;74.53
71621;BME280;59471;42.254;23.102;2023-01-25T09:25:14;96893.22;;;4.78;73.75
71621;BME280;59471;42.254;23.102;2023-01-25T09:27:40;96893.72;;;4.94;71.79
71621;BME280;59471;42.254;23.102;2023-01-25T09:30:07;96888.03;;;4.78;73.72
71621;BME280;59471;42.254;23.102;2023-01-25T09:32:34;96877.84;;;4.52;73.15
71621;BME280;59471;42.254;23.102;2023-01-25T09:35:00;96869.34;;;4.50;73.04
71621;BME280;59471;42.254;23.102;2023-01-25T09:37:25;96878.38;;;4.33;75.60
71621;BME280;59471;42.254;23.102;2023-01-25T09:39:51;96866.38;;;4.44;74.87
71621;BME280;59471;42.254;23.102;2023-01-25T09:45:23;96861.75;;;4.82;73.26
71621;BME280;59471;42.254;23.102;2023-01-25T09:53:55;96837.41;;;4.95;72.68
71621;BME280;59471;42.254;23.102;2023-01-25T09:56:32;96832.47;;;4.92;72.84
71621;BME280;59471;42.254;23.102;2023-01-25T09:59:04;96834.94;;;5.16;71.49
71621;BME280;59471;42.254;23.102;2023-01-25T10:04:23;96831.63;;;5.14;71.91
71621;BME280;59471;42.254;23.102;2023-01-25T10:06:52;96834.91;;;5.38;72.67
71621;BME280;59471;42.254;23.102;2023-01-25T10:12:24;96821.59;;;5.31;72.27
71621;BME280;59471;42.254;23.102;2023-01-25T10:14:51;96813.78;;;5.31;71.77
71621;BME280;59471;42.254;23.102;2023-01-25T10:17:58;96814.53;;;4.88;75.54
71621;BME280;59471;42.254;23.102;2023-01-25T10:20:37;96812.88;;;5.21;72.26
71621;BME280;59471;42.254;23.102;2023-01-25T10:23:14;96807.00;;;5.08;72.44
71621;BME280;59471;42.254;23.102;2023-01-25T10:29:10;96805.44;;;6.03;70.94
71621;BME280;59471;42.254;23.102;2023-01-25T10:31:49;96803.25;;;6.20;69.77
71621;BME280;59471;42.254;23.102;2023-01-25T10:34:31;96804.88;;;5.89;71.55
71621;BME280;59471;42.254;23.102;2023-01-25T10:37:10;96790.81;;;6.02;69.90
71621;BME280;59471;42.254;23.102;2023-01-25T10:39:44;96787.28;;;6.24;69.67
71621;BME280;59471;42.254;23.102;2023-01-25T10:42:18;96777.38;;;6.18;67.88
71621;BME280;59471;42.254;23.102;2023-01-25T10:44:44;96775.19;;;6.23;69.29
71621;BME280;59471;42.254;23.102;2023-01-25T10:49:55;96766.00;;;5.98;71.17
71621;BME280;59471;42.254;23.102;2023-01-25T10:57:49;96762.69;;;5.64;71.83
71621;BME280;59471;42.254;23.102;2023-01-25T11:00:40;96766.38;;;5.82;69.42
71621;BME280;59471;42.254;23.102;2023-01-25T11:03:19;96753.56;;;5.49;72.30
71621;BME280;59471;42.254;23.102;2023-01-25T11:05:54;96742.50;;;5.24;71.23
71621;BME280;59471;42.254;23.102;2023-01-25T11:08:25;96736.78;;;5.74;71.28
71621;BME280;59471;42.254;23.102;2023-01-25T11:10:57;96739.22;;;5.87;69.82
71621;BME280;59471;42.254;23.102;2023-01-25T11:13:32;96741.88;;;5.64;69.90
71621;BME280;59471;42.254;23.102;2023-01-25T11:18:30;96722.13;;;5.52;72.20
71621;BME280;59471;42.254;23.102;2023-01-25T11:21:11;96715.22;;;5.83;71.38
71621;BME280;59471;42.254;23.102;2023-01-25T11:23:39;96712.59;;;5.94;70.39
71621;BME280;59471;42.254;23.102;2023-01-25T11:28:40;96709.44;;;5.26;72.70
71621;BME280;59471;42.254;23.102;2023-01-25T11:31:14;96699.75;;;5.28;73.28
71621;BME280;59471;42.254;23.102;2023-01-25T11:33:42;96697.31;;;5.16;73.45
71621;BME280;59471;42.254;23.102;2023-01-25T11:45:11;96686.63;;;5.62;72.14
71621;BME280;59471;42.254;23.102;2023-01-25T11:50:40;96671.56;;;5.56;71.73
71621;BME280;59471;42.254;23.102;2023-01-25T11:59:11;96657.63;;;5.25;73.46
71621;BME280;59471;42.254;23.102;2023-01-25T12:04:34;96648.72;;;5.39;73.63
71621;BME280;59471;42.254;23.102;2023-01-25T12:07:15;96644.88;;;5.33;73.08
71621;BME280;59471;42.254;23.102;2023-01-25T12:13:00;96641.88;;;5.79;73.85
71621;BME280;59471;42.254;23.102;2023-01-25T12:24:00;96633.28;;;6.00;72.78
71621;BME280;59471;42.254;23.102;2023-01-25T12:27:00;96627.81;;;5.82;70.52
71621;BME280;59471;42.254;23.102;2023-01-25T12:29:39;96615.94;;;5.89;70.87
71621;BME280;59471;42.254;23.102;2023-01-25T12:32:17;96620.06;;;5.92;70.59
71621;BME280;59471;42.254;23.102;2023-01-25T12:35:01;96611.97;;;6.06;71.09
71621;BME280;59471;42.254;23.102;2023-01-25T12:37:38;96605.59;;;6.30;69.61
71621;BME280;59471;42.254;23.102;2023-01-25T12:40:24;96602.22;;;6.39;69.05
71621;BME280;59471;42.254;23.102;2023-01-25T12:43:22;96603.16;;;6.38;67.38
71621;BME280;59471;42.254;23.102;2023-01-25T12:45:52;96600.25;;;6.21;67.73
71621;BME280;59471;42.254;23.102;2023-01-25T12:48:27;96603.19;;;6.07;69.53
71621;BME280;59471;42.254;23.102;2023-01-25T12:50:58;96595.97;;;5.90;69.54
71621;BME280;59471;42.254;23.102;2023-01-25T12:53:39;96592.78;;;6.07;68.76
71621;BME280;59471;42.254;23.102;2023-01-25T12:56:09;96595.91;;;6.01;68.13
71621;BME280;59471;42.254;23.102;2023-01-25T12:59:07;96602.06;;;6.00;69.95
71621;BME280;59471;42.254;23.102;2023-01-25T13:02:17;96601.66;;;5.74;69.78
71621;BME280;59471;42.254;23.102;2023-01-25T13:11:13;96621.09;;;5.79;68.22
71621;BME280;59471;42.254;23.102;2023-01-25T13:13:43;96628.88;;;5.79;68.02
71621;BME280;59471;42.254;23.102;2023-01-25T13:16:34;96629.47;;;5.62;68.39
71621;BME280;59471;42.254;23.102;2023-01-25T13:19:02;96627.91;;;5.71;68.67
71621;BME280;59471;42.254;23.102;2023-01-25T13:21:41;96632.44;;;5.78;67.52
71621;BME280;59471;42.254;23.102;2023-01-25T13:24:17;96641.00;;;5.69;66.97
71621;BME280;59471;42.254;23.102;2023-01-25T13:29:43;96634.53;;;5.64;68.20
71621;BME280;59471;42.254;23.102;2023-01-25T13:32:12;96634.03;;;5.49;68.63
71621;BME280;59471;42.254;23.102;2023-01-25T13:37:25;96619.53;;;5.46;68.94
71621;BME280;59471;42.254;23.102;2023-01-25T13:40:27;96618.97;;;5.43;68.00
71621;BME280;59471;42.254;23.102;2023-01-25T13:43:01;96618.03;;;5.32;67.51
71621;BME280;59471;42.254;23.102;2023-01-25T13:45:29;96607.59;;;5.23;69.98
71621;BME280;59471;42.254;23.102;2023-01-25T13:48:24;96612.94;;;5.10;67.61
71621;BME280;59471;42.254;23.102;2023-01-25T13:51:02;96604.16;;;5.01;70.22
71621;BME280;59471;42.254;23.102;2023-01-25T13:53:31;96595.50;;;5.12;69.60
71621;BME280;59471;42.254;23.102;2023-01-25T13:56:00;96600.59;;;5.02;68.43
71621;BME280;59471;42.254;23.102;2023-01-25T13:58:34;96594.28;;;4.95;68.72
71621;BME280;59471;42.254;23.102;2023-01-25T14:01:12;96589.25;;;4.82;69.93
71621;BME280;59471;42.254;23.102;2023-01-25T14:06:23;96579.78;;;4.81;70.55
71621;BME280;59471;42.254;23.102;2023-01-25T14:08:51;96575.06;;;4.86;69.31
71621;BME280;59471;42.254;23.102;2023-01-25T14:11:27;96581.53;;;4.92;69.34
71621;BME280;59471;42.254;23.102;2023-01-25T14:14:15;96570.94;;;4.84;68.95
71621;BME280;59471;42.254;23.102;2023-01-25T14:16:42;96567.31;;;4.75;69.93
71621;BME280;59471;42.254;23.102;2023-01-25T14:19:29;96586.69;;;4.71;70.26
71621;BME280;59471;42.254;23.102;2023-01-25T14:22:26;96576.78;;;4.65;70.58
71621;BME280;59471;42.254;23.102;2023-01-25T14:25:13;96581.06;;;4.55;70.13
71621;BME280;59471;42.254;23.102;2023-01-25T14:27:50;96591.16;;;4.69;69.63
71621;BME280;59471;42.254;23.102;2023-01-25T14:30:22;96592.84;;;4.59;70.10
71621;BME280;59471;42.254;23.102;2023-01-25T14:32:52;96587.69;;;4.48;71.04
71621;BME280;59471;42.254;23.102;2023-01-25T14:35:39;96586.97;;;4.46;69.32
71621;BME280;59471;42.254;23.102;2023-01-25T14:41:03;96590.78;;;4.19;69.33
71621;BME280;59471;42.254;23.102;2023-01-25T14:43:47;96600.47;;;4.17;69.89
71621;BME280;59471;42.254;23.102;2023-01-25T14:46:37;96602.56;;;4.12;70.75
71621;BME280;59471;42.254;23.102;2023-01-25T14:49:19;96592.78;;;4.15;70.57
71621;BME280;59471;42.254;23.102;2023-01-25T14:51:53;96597.16;;;4.04;69.57